createdAt,value
2018-02-09T00:00:13.872Z,2.60
2018-02-09T00:02:41.464Z,2.50
2018-02-09T00:05:09.796Z,2.50
2018-02-09T00:07:37.384Z,2.50
2018-02-09T00:10:04.962Z,2.50
2018-02-09T00:12:32.544Z,2.40
2018-02-09T00:15:00.115Z,2.50
2018-02-09T00:17:27.697Z,2.60
2018-02-09T00:19:55.260Z,2.50
2018-02-09T00:22:34.527Z,2.40
2018-02-09T00:25:02.852Z,2.40
2018-02-09T00:27:30.416Z,2.40
2018-02-09T00:29:58.009Z,2.40
2018-02-09T00:32:25.572Z,2.50
2018-02-09T00:34:53.924Z,2.40
2018-02-09T00:37:21.490Z,2.40
2018-02-09T00:39:49.075Z,2.50
2018-02-09T00:42:16.645Z,2.70
2018-02-09T00:44:44.228Z,2.70
2018-02-09T00:47:11.797Z,2.60
2018-02-09T00:49:39.397Z,2.50
2018-02-09T00:52:07.731Z,2.50
2018-02-09T00:54:35.325Z,2.50
2018-02-09T00:57:02.892Z,2.60
2018-02-09T00:59:31.251Z,2.50
2018-02-09T01:01:58.831Z,2.50
2018-02-09T01:04:27.211Z,2.70
2018-02-09T01:06:54.772Z,2.80
2018-02-09T01:09:22.363Z,2.70
2018-02-09T01:11:49.929Z,2.50
2018-02-09T01:14:17.508Z,2.40
2018-02-09T01:16:45.068Z,2.40
2018-02-09T01:19:12.628Z,2.40
2018-02-09T01:21:40.981Z,2.50
2018-02-09T01:24:08.551Z,2.50
2018-02-09T01:26:36.140Z,2.40
2018-02-09T01:29:03.726Z,2.40
2018-02-09T01:31:31.309Z,2.50
2018-02-09T01:33:58.873Z,2.70
2018-02-09T01:36:26.474Z,2.50
2018-02-09T01:38:54.046Z,2.50
2018-02-09T01:41:21.641Z,2.50
2018-02-09T01:43:49.209Z,2.50
2018-02-09T01:46:16.789Z,2.50
2018-02-09T01:48:44.360Z,2.50
2018-02-09T01:51:11.940Z,2.40
2018-02-09T01:53:39.512Z,2.40
2018-02-09T01:56:07.102Z,2.40
2018-02-09T01:58:35.448Z,2.50
2018-02-09T02:01:03.797Z,2.50
2018-02-09T02:03:31.373Z,2.50
2018-02-09T02:05:59.734Z,2.50
2018-02-09T02:08:27.305Z,2.50
2018-02-09T02:10:54.897Z,2.50
2018-02-09T02:13:22.467Z,2.40
2018-02-09T02:15:50.085Z,2.50
2018-02-09T02:18:17.661Z,2.60
2018-02-09T02:20:45.268Z,2.50
2018-02-09T02:23:12.829Z,2.60
2018-02-09T02:25:40.400Z,2.60
2018-02-09T02:28:09.487Z,2.70
2018-02-09T02:30:37.054Z,2.70
2018-02-09T02:33:04.684Z,2.60
2018-02-09T02:35:32.242Z,2.70
2018-02-09T02:37:59.823Z,2.70
2018-02-09T02:40:27.380Z,2.80
2018-02-09T02:42:54.974Z,2.80
2018-02-09T02:45:22.553Z,2.70
2018-02-09T02:47:50.145Z,2.70
2018-02-09T02:50:17.704Z,2.70
2018-02-09T02:52:45.306Z,2.70
2018-02-09T02:55:13.645Z,2.60
2018-02-09T02:57:41.228Z,2.60
2018-02-09T03:00:08.834Z,2.60
2018-02-09T03:02:36.416Z,2.80
2018-02-09T03:05:03.980Z,2.60
2018-02-09T03:07:31.567Z,2.50
2018-02-09T03:09:59.137Z,2.40
2018-02-09T03:12:26.728Z,2.40
2018-02-09T03:14:54.305Z,2.50
2018-02-09T03:17:21.894Z,2.70
2018-02-09T03:19:49.465Z,2.70
2018-02-09T03:22:18.389Z,2.60
2018-02-09T03:24:45.961Z,2.60
2018-02-09T03:27:13.544Z,2.50
2018-02-09T03:29:42.137Z,2.50
2018-02-09T03:32:09.744Z,2.50
2018-02-09T03:34:37.332Z,2.70
2018-02-09T03:37:04.891Z,2.70
2018-02-09T03:39:32.504Z,2.70
2018-02-09T03:42:00.070Z,2.70
2018-02-09T03:44:28.416Z,2.60
2018-02-09T03:46:56.103Z,2.60
2018-02-09T03:49:24.464Z,2.50
2018-02-09T03:51:52.047Z,2.50
2018-02-09T03:54:20.403Z,2.40
2018-02-09T03:56:47.963Z,2.40
2018-02-09T03:59:15.550Z,2.40
2018-02-09T04:01:43.881Z,2.40
2018-02-09T04:04:11.473Z,2.30
2018-02-09T04:06:39.049Z,2.40
2018-02-09T04:09:06.658Z,2.50
2018-02-09T04:11:34.227Z,2.60
2018-02-09T04:14:01.825Z,2.50
2018-02-09T04:16:30.166Z,2.60
2018-02-09T04:18:57.767Z,2.60
2018-02-09T04:21:25.328Z,2.50
2018-02-09T04:23:52.913Z,2.50
2018-02-09T04:26:20.481Z,2.40
2018-02-09T04:28:48.113Z,2.50
2018-02-09T04:31:15.674Z,2.60
2018-02-09T04:33:43.242Z,2.60
2018-02-09T04:36:10.825Z,2.60
2018-02-09T04:38:38.384Z,2.50
2018-02-09T04:41:05.976Z,2.60
2018-02-09T04:43:34.313Z,2.80
2018-02-09T04:46:01.897Z,2.70
2018-02-09T04:48:29.469Z,2.70
2018-02-09T04:50:57.061Z,2.60
2018-02-09T04:53:24.622Z,2.60
2018-02-09T04:55:52.218Z,2.70
2018-02-09T04:58:19.795Z,2.70
2018-02-09T05:00:47.380Z,2.70
2018-02-09T05:03:14.949Z,2.60
2018-02-09T05:05:42.547Z,2.50
2018-02-09T05:08:10.118Z,2.40
2018-02-09T05:10:37.709Z,2.40
2018-02-09T05:13:05.282Z,2.40
2018-02-09T05:15:32.882Z,2.40
2018-02-09T05:18:00.449Z,2.40
2018-02-09T05:20:28.817Z,2.30
2018-02-09T05:22:56.389Z,2.30
2018-02-09T05:25:23.981Z,2.50
2018-02-09T05:27:52.308Z,2.60
2018-02-09T05:30:19.905Z,2.50
2018-02-09T05:32:47.473Z,2.70
2018-02-09T05:35:15.844Z,2.60
2018-02-09T05:37:43.410Z,2.60
2018-02-09T05:40:11.898Z,2.50
2018-02-09T05:42:39.493Z,2.60
2018-02-09T05:45:07.097Z,2.80
2018-02-09T05:47:34.680Z,2.60
2018-02-09T05:50:03.008Z,2.50
2018-02-09T05:52:30.600Z,2.50
2018-02-09T05:54:59.816Z,2.60
2018-02-09T05:57:29.101Z,2.50
2018-02-09T05:59:57.445Z,2.50
2018-02-09T06:02:25.028Z,2.50
2018-02-09T06:04:52.605Z,2.40
2018-02-09T06:07:20.184Z,2.50
2018-02-09T06:09:47.740Z,2.50
2018-02-09T06:12:15.333Z,2.50
2018-02-09T06:14:42.902Z,2.40
2018-02-09T06:17:10.488Z,2.30
2018-02-09T06:19:38.048Z,2.30
2018-02-09T06:22:06.409Z,2.30
2018-02-09T06:24:33.993Z,2.30
2018-02-09T06:27:02.341Z,2.30
2018-02-09T06:29:29.919Z,2.30
2018-02-09T06:31:57.503Z,2.30
2018-02-09T06:34:25.075Z,2.40
2018-02-09T06:36:52.664Z,2.50
2018-02-09T06:39:20.232Z,2.50
2018-02-09T06:41:47.825Z,2.40
2018-02-09T06:44:15.417Z,2.50
2018-02-09T06:46:42.981Z,2.60
2018-02-09T06:49:10.595Z,2.50
2018-02-09T06:51:38.927Z,2.50
2018-02-09T06:54:06.521Z,2.50
2018-02-09T06:56:34.089Z,2.40
2018-02-09T06:59:01.688Z,2.40
2018-02-09T07:01:29.252Z,2.50
2018-02-09T07:03:56.836Z,2.40
2018-02-09T07:06:24.401Z,2.40
2018-02-09T07:08:51.993Z,2.40
2018-02-09T07:11:19.809Z,2.30
2018-02-09T07:13:47.623Z,2.30
2018-02-09T07:16:15.202Z,2.40
2018-02-09T07:18:43.573Z,2.40
2018-02-09T07:21:11.192Z,2.40
2018-02-09T07:23:38.772Z,2.30
2018-02-09T07:26:07.104Z,2.50
2018-02-09T07:28:34.693Z,2.50
2018-02-09T07:31:02.266Z,2.50
2018-02-09T07:33:30.621Z,2.60
2018-02-09T07:35:58.198Z,2.60
2018-02-09T07:38:26.768Z,2.70
2018-02-09T07:40:54.340Z,2.70
2018-02-09T07:43:22.320Z,2.70
2018-02-09T07:45:50.116Z,2.60
2018-02-09T07:48:17.698Z,2.70
2018-02-09T07:50:45.276Z,2.80
2018-02-09T07:53:12.865Z,2.90
2018-02-09T07:55:40.427Z,2.80
2018-02-09T07:58:07.988Z,2.80
2018-02-09T08:00:35.573Z,2.80
2018-02-09T08:03:03.192Z,2.90
2018-02-09T08:05:31.550Z,2.80
2018-02-09T08:07:59.117Z,2.80
2018-02-09T08:10:26.712Z,2.80
2018-02-09T08:12:54.278Z,2.80
2018-02-09T08:15:21.865Z,2.90
2018-02-09T08:17:50.208Z,2.90
2018-02-09T08:20:17.797Z,2.90
2018-02-09T08:22:45.376Z,2.90
2018-02-09T08:25:12.965Z,3.00
2018-02-09T08:27:40.536Z,2.90
2018-02-09T08:30:08.177Z,3.00
2018-02-09T08:32:35.728Z,3.00
2018-02-09T08:35:03.341Z,3.00
2018-02-09T08:37:30.897Z,3.10
2018-02-09T08:39:58.479Z,3.10
2018-02-09T08:42:26.086Z,3.10
2018-02-09T08:44:53.673Z,3.10
2018-02-09T08:47:21.247Z,3.20
2018-02-09T08:49:48.836Z,3.20
2018-02-09T08:52:16.401Z,3.20
2018-02-09T08:54:44.008Z,3.20
2018-02-09T08:57:11.572Z,3.20
2018-02-09T08:59:39.162Z,3.10
2018-02-09T09:02:06.784Z,3.20
2018-02-09T09:04:34.388Z,3.20
2018-02-09T09:07:01.961Z,3.20
2018-02-09T09:09:30.952Z,3.40
2018-02-09T09:11:59.307Z,3.40
2018-02-09T09:14:26.893Z,3.40
2018-02-09T09:16:54.494Z,3.40
2018-02-09T09:19:22.053Z,3.40
2018-02-09T09:21:49.641Z,3.50
2018-02-09T09:24:17.216Z,3.60
2018-02-09T09:26:45.582Z,3.60
2018-02-09T09:29:13.144Z,3.60
2018-02-09T09:31:40.730Z,3.50
2018-02-09T09:34:09.073Z,3.60
2018-02-09T09:36:36.655Z,3.60
2018-02-09T09:39:04.991Z,3.70
2018-02-09T09:41:32.579Z,3.70
2018-02-09T09:44:00.164Z,3.60
2018-02-09T09:46:27.745Z,3.60
2018-02-09T09:48:55.318Z,3.60
2018-02-09T09:51:22.900Z,3.70
2018-02-09T09:53:50.474Z,3.70
2018-02-09T09:56:18.066Z,3.60
2018-02-09T09:58:45.639Z,3.70
2018-02-09T10:01:18.774Z,3.80
2018-02-09T10:03:46.345Z,3.70
2018-02-09T10:06:13.933Z,3.70
2018-02-09T10:08:41.510Z,3.80
2018-02-09T10:11:09.092Z,3.90
2018-02-09T10:13:36.692Z,3.90
2018-02-09T10:16:04.252Z,3.80
2018-02-09T10:18:32.606Z,3.90
2018-02-09T10:21:00.181Z,3.90
2018-02-09T10:23:27.845Z,3.90
2018-02-09T10:25:56.172Z,4.00
2018-02-09T10:28:23.752Z,4.00
2018-02-09T10:30:51.316Z,3.90
2018-02-09T10:33:18.908Z,3.90
2018-02-09T10:35:47.240Z,4.20
2018-02-09T10:38:14.828Z,4.20
2018-02-09T10:40:42.397Z,4.30
2018-02-09T10:43:09.980Z,4.10
2018-02-09T10:45:37.545Z,4.00
2018-02-09T10:48:05.137Z,4.00
2018-02-09T10:50:32.701Z,4.10
2018-02-09T10:53:00.284Z,4.10
2018-02-09T10:55:27.849Z,4.20
2018-02-09T10:57:56.209Z,4.00
2018-02-09T11:00:29.351Z,4.00
2018-02-09T11:02:56.932Z,4.10
2018-02-09T11:05:24.507Z,4.20
2018-02-09T11:07:52.138Z,4.10
2018-02-09T11:10:25.412Z,4.20
2018-02-09T11:12:53.006Z,4.20
2018-02-09T11:15:20.577Z,4.20
2018-02-09T11:17:48.933Z,4.30
2018-02-09T11:20:17.520Z,4.30
2018-02-09T11:22:45.125Z,4.30
2018-02-09T11:25:12.691Z,4.30
2018-02-09T11:27:41.046Z,4.40
2018-02-09T11:30:09.333Z,4.40
2018-02-09T11:32:36.896Z,4.40
2018-02-09T11:35:05.248Z,4.50
2018-02-09T11:37:32.815Z,4.50
2018-02-09T11:40:00.404Z,4.40
2018-02-09T11:42:28.781Z,4.40
2018-02-09T11:44:57.150Z,4.40
2018-02-09T11:47:24.708Z,4.40
2018-02-09T11:49:53.059Z,4.30
2018-02-09T11:52:20.638Z,4.30
2018-02-09T11:54:48.224Z,4.30
2018-02-09T11:57:15.780Z,4.40
2018-02-09T11:59:43.360Z,4.40
2018-02-09T12:02:10.932Z,4.40
2018-02-09T12:04:38.530Z,4.30
2018-02-09T12:07:06.861Z,4.30
2018-02-09T12:09:34.444Z,4.30
2018-02-09T12:12:02.832Z,4.30
2018-02-09T12:14:30.421Z,4.30
2018-02-09T12:16:58.756Z,4.40
2018-02-09T12:19:26.921Z,4.40
2018-02-09T12:21:54.499Z,4.40
2018-02-09T12:24:22.096Z,4.40
2018-02-09T12:26:49.670Z,4.50
2018-02-09T12:29:17.524Z,4.60
2018-02-09T12:31:45.280Z,4.60
2018-02-09T12:34:12.845Z,4.60
2018-02-09T12:36:40.434Z,4.70
2018-02-09T12:39:07.999Z,4.70
2018-02-09T12:41:35.583Z,4.70
2018-02-09T12:44:03.141Z,4.70
2018-02-09T12:46:30.727Z,4.70
2018-02-09T12:48:59.065Z,4.70
2018-02-09T12:51:26.653Z,4.70
2018-02-09T12:53:54.216Z,4.80
2018-02-09T12:56:21.802Z,4.90
2018-02-09T12:58:49.648Z,5.00
2018-02-09T13:01:17.245Z,5.10
2018-02-09T13:03:44.804Z,5.00
2018-02-09T13:06:12.389Z,5.00
2018-02-09T13:08:39.944Z,5.00
2018-02-09T13:11:08.266Z,5.00
2018-02-09T13:13:35.837Z,5.00
2018-02-09T13:16:03.432Z,4.90
2018-02-09T13:18:42.710Z,4.90
2018-02-09T13:21:11.069Z,5.00
2018-02-09T13:23:50.925Z,5.00
2018-02-09T13:26:18.508Z,5.00
2018-02-09T13:28:57.819Z,5.00
2018-02-09T13:31:25.404Z,5.00
2018-02-09T13:33:52.970Z,5.10
2018-02-09T13:36:32.397Z,5.20
2018-02-09T13:39:00.026Z,5.20
2018-02-09T13:41:27.602Z,5.20
2018-02-09T13:43:55.936Z,5.30
2018-02-09T13:46:23.524Z,5.30
2018-02-09T13:48:51.094Z,5.30
2018-02-09T13:51:18.667Z,5.30
2018-02-09T13:53:49.116Z,5.40
2018-02-09T13:56:16.685Z,5.40
2018-02-09T13:58:44.267Z,5.40
2018-02-09T14:01:11.841Z,5.40
2018-02-09T14:03:40.221Z,5.50
2018-02-09T14:06:07.828Z,5.50
2018-02-09T14:08:35.418Z,5.50
2018-02-09T14:11:03.042Z,5.50
2018-02-09T14:13:30.620Z,5.50
2018-02-09T14:15:58.185Z,5.50
2018-02-09T14:18:25.774Z,5.50
2018-02-09T14:20:53.349Z,5.50
2018-02-09T14:23:21.696Z,5.40
2018-02-09T14:25:49.265Z,5.40
2018-02-09T14:28:17.426Z,5.50
2018-02-09T14:30:45.010Z,5.40
2018-02-09T14:33:13.373Z,5.40
2018-02-09T14:35:40.936Z,5.40
2018-02-09T14:38:08.530Z,5.30
2018-02-09T14:40:36.092Z,5.30
2018-02-09T14:43:03.685Z,5.20
2018-02-09T14:45:31.248Z,5.30
2018-02-09T14:47:58.841Z,5.20
2018-02-09T14:50:26.404Z,5.20
2018-02-09T14:52:53.993Z,5.10
2018-02-09T14:55:21.562Z,5.10
2018-02-09T14:57:49.168Z,5.20
2018-02-09T15:00:16.754Z,5.20
2018-02-09T15:02:44.438Z,5.10
2018-02-09T15:05:12.080Z,5.10
2018-02-09T15:07:39.652Z,5.10
2018-02-09T15:10:07.241Z,5.10
2018-02-09T15:12:34.809Z,5.00
2018-02-09T15:15:02.417Z,5.10
2018-02-09T15:17:29.991Z,5.00
2018-02-09T15:19:57.590Z,5.00
2018-02-09T15:22:25.372Z,5.00
2018-02-09T15:24:52.988Z,5.00
2018-02-09T15:27:20.552Z,4.90
2018-02-09T15:29:48.144Z,4.90
2018-02-09T15:32:15.712Z,4.90
2018-02-09T15:34:44.069Z,4.90
2018-02-09T15:37:11.646Z,4.90
2018-02-09T15:39:39.231Z,4.90
2018-02-09T15:42:06.989Z,4.80
2018-02-09T15:44:34.783Z,4.80
2018-02-09T15:47:02.388Z,4.70
2018-02-09T15:49:29.972Z,4.80
2018-02-09T15:51:57.577Z,4.80
2018-02-09T15:54:25.173Z,4.80
2018-02-09T15:56:52.734Z,4.80
2018-02-09T15:59:21.108Z,4.70
2018-02-09T16:01:48.696Z,4.70
2018-02-09T16:04:16.264Z,4.80
2018-02-09T16:06:43.844Z,4.80
2018-02-09T16:09:11.413Z,4.90
2018-02-09T16:11:39.009Z,4.90
2018-02-09T16:14:07.340Z,4.70
2018-02-09T16:16:34.933Z,4.70
2018-02-09T16:19:02.525Z,4.70
2018-02-09T16:21:30.109Z,4.70
2018-02-09T16:23:57.681Z,4.80
2018-02-09T16:26:26.221Z,4.80
2018-02-09T16:28:54.534Z,4.90
2018-02-09T16:31:22.115Z,4.90
2018-02-09T16:33:53.315Z,4.90
2018-02-09T16:36:20.965Z,4.70
2018-02-09T16:38:48.540Z,4.80
2018-02-09T16:41:16.129Z,4.70
2018-02-09T16:43:43.692Z,4.70
2018-02-09T16:46:11.310Z,4.80
2018-02-09T16:48:38.880Z,5.00
2018-02-09T16:51:06.472Z,4.90
2018-02-09T16:53:34.037Z,4.80
2018-02-09T16:56:01.625Z,4.60
2018-02-09T16:58:29.961Z,4.50
2018-02-09T17:00:57.552Z,4.50
2018-02-09T17:03:25.120Z,4.50
2018-02-09T17:05:52.728Z,4.40
2018-02-09T17:08:20.302Z,4.30
2018-02-09T17:10:47.892Z,4.20
2018-02-09T17:13:16.513Z,4.10
2018-02-09T17:15:44.133Z,4.10
2018-02-09T17:18:11.722Z,4.20
2018-02-09T17:20:39.297Z,4.30
2018-02-09T17:23:06.888Z,4.30
2018-02-09T17:25:34.460Z,4.10
2018-02-09T17:28:02.357Z,4.20
2018-02-09T17:30:29.924Z,4.10
2018-02-09T17:32:57.517Z,4.20
2018-02-09T17:35:25.085Z,4.10
2018-02-09T17:37:52.692Z,4.10
2018-02-09T17:40:20.255Z,4.10
2018-02-09T17:42:47.845Z,4.10
2018-02-09T17:45:15.421Z,4.00
2018-02-09T17:47:43.014Z,4.10
2018-02-09T17:50:11.345Z,4.00
2018-02-09T17:52:38.933Z,4.00
2018-02-09T17:55:06.541Z,3.90
2018-02-09T17:57:34.131Z,3.90
2018-02-09T18:00:01.748Z,4.00
2018-02-09T18:02:29.302Z,4.10
2018-02-09T18:04:56.874Z,4.10
2018-02-09T18:07:24.477Z,4.00
2018-02-09T18:09:52.046Z,3.90
2018-02-09T18:12:19.637Z,3.90
2018-02-09T18:14:47.409Z,3.90
2018-02-09T18:17:15.048Z,4.10
2018-02-09T18:19:42.600Z,4.10
2018-02-09T18:22:13.061Z,4.00
2018-02-09T18:24:41.255Z,4.00
2018-02-09T18:27:08.833Z,4.00
2018-02-09T18:29:36.425Z,3.90
2018-02-09T18:32:04.002Z,3.80
2018-02-09T18:34:31.592Z,3.60
2018-02-09T18:36:59.635Z,3.70
2018-02-09T18:39:27.453Z,3.70
2018-02-09T18:41:55.021Z,3.80
2018-02-09T18:44:22.617Z,3.80
2018-02-09T18:46:50.246Z,3.80
2018-02-09T18:49:17.812Z,3.70
2018-02-09T18:51:45.381Z,3.70
2018-02-09T18:54:12.965Z,3.70
2018-02-09T18:56:40.940Z,3.60
2018-02-09T18:59:09.357Z,3.70
2018-02-09T19:01:36.932Z,3.70
2018-02-09T19:04:04.517Z,3.60
2018-02-09T19:06:32.115Z,3.60
2018-02-09T19:08:59.708Z,3.40
2018-02-09T19:11:27.272Z,3.60
2018-02-09T19:13:55.633Z,3.80
2018-02-09T19:16:23.205Z,3.80
2018-02-09T19:18:50.791Z,3.60
2018-02-09T19:21:18.360Z,3.50
2018-02-09T19:23:45.946Z,3.40
2018-02-09T19:26:13.508Z,3.40
2018-02-09T19:28:41.101Z,3.40
2018-02-09T19:31:09.136Z,3.40
2018-02-09T19:33:36.798Z,3.60
2018-02-09T19:36:04.369Z,3.70
2018-02-09T19:38:32.092Z,3.70
2018-02-09T19:40:59.737Z,3.60
2018-02-09T19:43:27.318Z,3.50
2018-02-09T19:45:55.025Z,3.40
2018-02-09T19:48:22.658Z,3.40
2018-02-09T19:50:52.164Z,3.50
2018-02-09T19:53:19.769Z,3.50
2018-02-09T19:55:47.356Z,3.60
2018-02-09T19:58:14.926Z,3.60
2018-02-09T20:00:42.508Z,3.70
2018-02-09T20:03:18.177Z,3.50
2018-02-09T20:05:45.769Z,3.50
2018-02-09T20:08:13.330Z,3.50
2018-02-09T20:10:42.176Z,3.50
2018-02-09T20:13:11.462Z,3.50
2018-02-09T20:15:39.921Z,3.50
2018-02-09T20:18:07.577Z,3.40
2018-02-09T20:20:35.251Z,3.50
2018-02-09T20:23:02.828Z,3.50
2018-02-09T20:25:30.425Z,3.40
2018-02-09T20:27:58.003Z,3.30
2018-02-09T20:30:26.102Z,3.40
2018-02-09T20:32:54.295Z,3.40
2018-02-09T20:35:21.909Z,3.30
2018-02-09T20:37:49.795Z,3.20
2018-02-09T20:40:17.428Z,3.10
2018-02-09T20:42:45.036Z,3.10
2018-02-09T20:45:12.847Z,3.30
2018-02-09T20:47:40.413Z,3.50
2018-02-09T20:50:08.017Z,3.50
2018-02-09T20:52:35.590Z,3.50
2018-02-09T20:55:03.181Z,3.40
2018-02-09T20:57:31.483Z,3.40
2018-02-09T20:59:59.096Z,3.40
2018-02-09T21:02:26.762Z,3.50
2018-02-09T21:04:55.106Z,3.20
2018-02-09T21:07:23.495Z,3.20
2018-02-09T21:09:51.086Z,3.20
2018-02-09T21:12:18.737Z,3.20
2018-02-09T21:14:47.080Z,3.20
2018-02-09T21:17:14.792Z,3.20
2018-02-09T21:19:42.424Z,3.10
2018-02-09T21:22:10.021Z,3.20
2018-02-09T21:24:37.590Z,3.20
2018-02-09T21:27:05.668Z,3.30
2018-02-09T21:29:33.272Z,3.30
2018-02-09T21:32:01.290Z,3.20
2018-02-09T21:34:28.864Z,3.10
2018-02-09T21:36:56.461Z,3.20
2018-02-09T21:39:24.057Z,3.20
2018-02-09T21:41:51.653Z,3.20
2018-02-09T21:44:19.230Z,3.30
2018-02-09T21:46:46.811Z,3.20
2018-02-09T21:49:14.377Z,3.20
2018-02-09T21:51:41.978Z,3.20
2018-02-09T21:54:09.540Z,3.20
2018-02-09T21:56:37.133Z,3.10
2018-02-09T21:59:04.700Z,3.10
2018-02-09T22:01:33.063Z,3.10
2018-02-09T22:04:00.637Z,3.10
2018-02-09T22:06:28.205Z,3.20
2018-02-09T22:08:55.791Z,3.20
2018-02-09T22:11:23.357Z,3.20
2018-02-09T22:13:50.937Z,3.20
2018-02-09T22:16:18.515Z,3.20
2018-02-09T22:18:46.104Z,3.10
2018-02-09T22:21:14.437Z,3.10
2018-02-09T22:23:42.789Z,3.00
2018-02-09T22:26:10.348Z,3.00
2018-02-09T22:28:37.937Z,3.00
2018-02-09T22:31:05.511Z,3.10
2018-02-09T22:33:33.095Z,3.10
2018-02-09T22:36:01.426Z,3.10
2018-02-09T22:38:29.021Z,3.10
2018-02-09T22:40:57.363Z,3.10
2018-02-09T22:43:24.953Z,3.10
2018-02-09T22:45:52.520Z,3.10
2018-02-09T22:48:20.874Z,3.10
2018-02-09T22:50:49.189Z,3.10
2018-02-09T22:53:16.782Z,3.10
2018-02-09T22:55:44.348Z,3.20
2018-02-09T22:58:11.942Z,3.20
2018-02-09T23:00:40.284Z,3.30
2018-02-09T23:03:07.873Z,3.30
2018-02-09T23:05:35.437Z,3.30
2018-02-09T23:08:03.064Z,3.40
2018-02-09T23:10:30.638Z,3.30
2018-02-09T23:12:58.210Z,3.20
2018-02-09T23:15:26.573Z,3.10
2018-02-09T23:17:54.140Z,3.10
2018-02-09T23:20:21.757Z,3.30
2018-02-09T23:22:49.333Z,3.30
2018-02-09T23:25:16.920Z,3.40
2018-02-09T23:27:44.489Z,3.40
2018-02-09T23:30:19.594Z,3.30
2018-02-09T23:32:47.162Z,3.30
2018-02-09T23:35:14.748Z,3.10
2018-02-09T23:37:42.308Z,3.00
2018-02-09T23:40:10.655Z,3.10
2018-02-09T23:42:38.219Z,3.10
2018-02-09T23:45:05.800Z,3.10
2018-02-09T23:47:33.360Z,3.10
2018-02-09T23:50:01.716Z,3.10
2018-02-09T23:52:29.290Z,3.10
2018-02-09T23:54:56.885Z,3.10
2018-02-09T23:57:24.452Z,3.10
2018-02-09T23:59:52.032Z,3.10
